Airfield :
LOGIN :

Register | Disclaimer

   EN    FR    IT 

 










Legend :    VFR   Marginal VFR   IFR   Intensive IFR   Very Intensive IFR
Visi :
Ceiling :
>= 8 km
>= 3000ft
5 to 8 km
1000 to 3000 ft
1500m to 5 km
500 to 1000 ft
800 to 1500m
200 to 500 ft
< 800m
< 200 ft
Symbols :   Thunderstorms  Fog  Heavy snow  Heavy precipitations  Wind > 20 kt
SIGMETs :     Misc.  Thunderstorms  Icing  Turbulence  Mountain Waves  Volcanic Ashes






- Airport Elevation : 580 ft


LFOA - Avord

CURRENT METAR :
  • 021930Z AUTO 35009KT CAVOK 08/M02 Q1015

EXPIRED METARs :
  • 021900Z AUTO 36006KT CAVOK 09/M02 Q1015
  • 021830Z AUTO 36005KT CAVOK 09/M02 Q1015
  • 021800Z AUTO 01006KT CAVOK 11/M02 Q1014
  • 021730Z AUTO 36005KT CAVOK 12/M02 Q1014
  • 021700Z AUTO 35007KT 330V030 CAVOK 13/M02 Q1014 NOSIG
  • 021630Z AUTO 02007KT 340V050 CAVOK 13/M03 Q1014 NOSIG

TAF TAF LFOA
Valid from the 02 at 15:00 until the 03 at 15:00 UTC


021400Z 0215/0315 35007KT CAVOK
PROB30
TEMPO 0304/0308 4000 BR SCT004



MET'MAP, your aeronautical weather chart ! - Copyright ORBIFLY December 2007 - Disclaimer

ORBIFLY MET'MAP TEAM :

Programming & Development : Alexandra Zaïnal
Concept & original design : Baudouin d'Aumeries
Assistance for programming : Marc-Olivier Méhu
Technical & hardware support : Manuel Goepfert

Contact : metmap@orbifly.com




SOURCES & CREDITS :

   NOAA